createdAt,value
2022-09-13T00:01:28.444Z,6.30
2022-09-13T00:03:55.050Z,6.47
2022-09-13T00:06:22.753Z,6.70
2022-09-13T00:08:49.860Z,6.50
2022-09-13T00:11:25.613Z,7.23
2022-09-13T00:13:53.452Z,6.13
2022-09-13T00:16:22.032Z,7.00
2022-09-13T00:18:48.815Z,6.43
2022-09-13T00:21:18.631Z,6.73
2022-09-13T00:23:47.303Z,7.63
2022-09-13T00:26:17.552Z,7.67
2022-09-13T00:28:45.429Z,7.47
2022-09-13T00:31:12.500Z,7.20
2022-09-13T00:33:39.133Z,7.07
2022-09-13T00:36:07.467Z,7.07
2022-09-13T00:38:40.775Z,7.50
2022-09-13T00:41:10.969Z,6.60
2022-09-13T00:43:40.972Z,8.47
2022-09-13T00:46:08.050Z,7.33
2022-09-13T00:48:35.637Z,8.30
2022-09-13T00:51:03.642Z,8.07
2022-09-13T00:53:36.150Z,8.17
2022-09-13T00:56:06.397Z,6.93
2022-09-13T00:59:04.408Z,7.60
2022-09-13T01:01:41.700Z,7.93
2022-09-13T01:04:12.377Z,8.50
2022-09-13T01:06:41.444Z,7.43
2022-09-13T01:09:08.375Z,7.87
2022-09-13T01:11:44.010Z,7.97
2022-09-13T01:14:11.458Z,7.63
2022-09-13T01:16:38.267Z,8.30
2022-09-13T01:19:05.322Z,8.00
2022-09-13T01:21:53.280Z,7.73
2022-09-13T01:24:30.906Z,7.83
2022-09-13T01:27:35.078Z,8.27
2022-09-13T01:30:20.706Z,8.03
2022-09-13T01:33:11.988Z,7.87
2022-09-13T01:35:47.592Z,7.80
2022-09-13T01:38:32.037Z,7.27
2022-09-13T01:41:07.242Z,7.07
2022-09-13T01:43:42.759Z,6.73
2022-09-13T01:46:39.846Z,6.53
2022-09-13T01:49:18.719Z,6.20
2022-09-13T01:52:00.706Z,7.33
2022-09-13T01:54:46.198Z,6.80
2022-09-13T01:57:27.261Z,7.43
2022-09-13T02:00:05.777Z,7.47
2022-09-13T02:02:47.675Z,7.10
2022-09-13T02:05:35.369Z,7.70
2022-09-13T02:08:10.141Z,6.63
2022-09-13T02:10:49.141Z,7.40
2022-09-13T02:13:20.300Z,7.77
2022-09-13T02:15:50.408Z,6.90
2022-09-13T02:18:25.882Z,7.70
2022-09-13T02:20:55.003Z,7.20
2022-09-13T02:23:31.227Z,7.50
2022-09-13T02:26:00.368Z,6.43
2022-09-13T02:28:33.713Z,6.87
2022-09-13T02:31:04.588Z,7.67
2022-09-13T02:33:36.305Z,6.63
2022-09-13T02:36:07.899Z,7.40
2022-09-13T02:38:55.680Z,7.23
2022-09-13T02:41:28.826Z,6.80
2022-09-13T02:44:13.175Z,8.30
2022-09-13T02:47:15.437Z,7.50
2022-09-13T02:49:52.792Z,7.40
2022-09-13T02:52:35.488Z,6.87
2022-09-13T02:55:20.278Z,6.80
2022-09-13T02:58:10.932Z,6.80
2022-09-13T03:00:37.713Z,7.80
2022-09-13T03:03:08.802Z,7.73
2022-09-13T03:05:35.373Z,7.30
2022-09-13T03:08:02.910Z,7.07
2022-09-13T03:10:56.187Z,6.83
2022-09-13T03:13:47.541Z,6.77
2022-09-13T03:16:48.516Z,6.90
2022-09-13T03:19:51.214Z,7.53
2022-09-13T03:22:23.806Z,7.20
2022-09-13T03:25:06.248Z,7.07
2022-09-13T03:27:43.118Z,6.23
2022-09-13T03:30:12.946Z,6.73
2022-09-13T03:32:56.864Z,6.67
2022-09-13T03:35:29.890Z,8.40
2022-09-13T03:38:22.497Z,6.37
2022-09-13T03:41:05.398Z,8.20
2022-09-13T03:43:40.157Z,6.40
2022-09-13T03:46:12.040Z,6.77
2022-09-13T03:48:40.799Z,7.27
2022-09-13T03:51:08.517Z,6.97
2022-09-13T03:53:41.636Z,6.43
2022-09-13T03:56:20.105Z,7.17
2022-09-13T03:58:47.847Z,6.17
2022-09-13T04:01:18.731Z,6.40
2022-09-13T04:03:45.333Z,7.73
2022-09-13T04:06:11.949Z,6.87
2022-09-13T04:08:39.172Z,6.97
2022-09-13T04:11:06.076Z,6.30
2022-09-13T04:13:32.972Z,8.13
2022-09-13T04:16:04.234Z,7.47
2022-09-13T04:18:31.482Z,7.30
2022-09-13T04:20:59.756Z,7.53
2022-09-13T04:23:28.113Z,7.57
2022-09-13T04:25:54.953Z,7.73
2022-09-13T04:28:22.560Z,7.33
2022-09-13T04:30:49.968Z,7.37
2022-09-13T04:33:19.940Z,7.70
2022-09-13T04:35:47.045Z,8.00
2022-09-13T04:38:14.601Z,8.30
2022-09-13T04:40:41.169Z,8.10
2022-09-13T04:43:07.917Z,7.20
2022-09-13T04:45:34.591Z,7.93
2022-09-13T04:48:01.384Z,7.63
2022-09-13T04:50:28.374Z,7.60
2022-09-13T04:52:55.500Z,8.93
2022-09-13T04:55:22.559Z,8.67
2022-09-13T04:57:53.532Z,9.57
2022-09-13T05:00:20.190Z,8.93
2022-09-13T05:02:46.823Z,7.87
2022-09-13T05:05:13.503Z,9.27
2022-09-13T05:07:40.097Z,8.67
2022-09-13T05:10:07.199Z,9.00
2022-09-13T05:12:33.759Z,9.40
2022-09-13T05:15:00.309Z,9.03
2022-09-13T05:17:27.253Z,7.60
2022-09-13T05:19:53.800Z,8.13
2022-09-13T05:22:20.733Z,8.20
2022-09-13T05:24:47.317Z,8.90
2022-09-13T05:27:13.853Z,9.03
2022-09-13T05:29:40.421Z,8.80
2022-09-13T05:32:06.994Z,7.93
2022-09-13T05:34:33.771Z,7.60
2022-09-13T05:37:00.341Z,8.60
2022-09-13T05:39:33.911Z,7.20
2022-09-13T05:42:06.265Z,7.50
2022-09-13T05:44:34.824Z,7.67
2022-09-13T05:47:01.422Z,6.67
2022-09-13T05:49:28.016Z,7.53
2022-09-13T05:51:54.623Z,6.73
2022-09-13T05:54:21.229Z,6.57
2022-09-13T05:56:47.797Z,7.43
2022-09-13T05:59:14.772Z,7.07
2022-09-13T06:01:41.953Z,6.80
2022-09-13T06:04:08.817Z,6.50
2022-09-13T06:06:35.973Z,6.33
2022-09-13T06:09:02.682Z,7.67
2022-09-13T06:11:29.297Z,6.33
2022-09-13T06:13:55.992Z,8.27
2022-09-13T06:16:23.534Z,7.77
2022-09-13T06:18:50.468Z,9.07
2022-09-13T06:21:20.127Z,9.77
2022-09-13T06:23:52.822Z,8.40
2022-09-13T06:26:28.010Z,8.80
2022-09-13T06:28:56.719Z,7.97
2022-09-13T06:31:26.298Z,8.43
2022-09-13T06:33:58.710Z,9.47
2022-09-13T06:36:25.691Z,9.20
2022-09-13T06:38:52.373Z,7.53
2022-09-13T06:41:22.581Z,9.27
2022-09-13T06:43:54.576Z,8.23
2022-09-13T06:46:24.854Z,8.13
2022-09-13T06:48:52.575Z,8.70
2022-09-13T06:51:21.284Z,10.23
2022-09-13T06:53:48.914Z,9.17
2022-09-13T06:56:18.765Z,10.40
2022-09-13T06:58:47.139Z,9.70
2022-09-13T07:01:23.292Z,9.37
2022-09-13T07:03:57.653Z,9.93
2022-09-13T07:06:27.598Z,13.27
2022-09-13T07:08:55.255Z,11.03
2022-09-13T07:11:24.256Z,12.10
2022-09-13T07:13:52.788Z,10.77
2022-09-13T07:16:21.506Z,10.07
2022-09-13T07:18:53.343Z,10.90
2022-09-13T07:21:20.635Z,8.37
2022-09-13T07:23:47.649Z,7.90
2022-09-13T07:26:14.385Z,9.27
2022-09-13T07:28:43.530Z,8.00
2022-09-13T07:31:16.242Z,6.93
2022-09-13T07:33:44.649Z,6.73
2022-09-13T07:36:12.858Z,6.77
2022-09-13T07:38:42.353Z,6.17
2022-09-13T07:41:14.025Z,5.40
2022-09-13T07:43:40.604Z,4.60
2022-09-13T07:46:08.732Z,4.20
2022-09-13T07:48:37.621Z,4.50
2022-09-13T07:51:06.898Z,4.20
2022-09-13T07:53:35.612Z,3.70
2022-09-13T07:56:08.178Z,2.50
2022-09-13T07:58:36.977Z,2.93
2022-09-13T08:01:16.046Z,2.50
2022-09-13T08:03:43.037Z,2.20
2022-09-13T08:06:10.055Z,2.23
2022-09-13T08:08:37.608Z,1.80
2022-09-13T08:11:06.164Z,1.77
2022-09-13T08:13:32.995Z,2.20
2022-09-13T08:16:04.730Z,1.50
2022-09-13T08:18:32.038Z,1.87
2022-09-13T08:21:00.003Z,1.90
2022-09-13T08:23:26.921Z,2.27
2022-09-13T08:25:53.765Z,2.23
2022-09-13T08:28:26.881Z,1.70
2022-09-13T08:30:54.483Z,1.40
2022-09-13T08:33:21.157Z,1.30
2022-09-13T08:35:55.449Z,1.10
2022-09-13T08:38:22.070Z,1.30
2022-09-13T08:41:01.924Z,1.20
2022-09-13T08:43:45.725Z,1.70
2022-09-13T08:46:24.119Z,1.43
2022-09-13T08:48:53.906Z,1.80
2022-09-13T08:51:38.426Z,1.73
2022-09-13T08:54:05.828Z,1.10
2022-09-13T08:56:44.161Z,1.07
2022-09-13T08:59:47.997Z,0.90
2022-09-13T09:02:48.056Z,0.90
2022-09-13T09:05:30.753Z,0.70
2022-09-13T09:08:31.251Z,1.10
2022-09-13T09:11:02.445Z,0.90
2022-09-13T09:13:37.515Z,1.00
2022-09-13T09:16:28.767Z,1.10
2022-09-13T09:18:57.738Z,1.20
2022-09-13T09:21:24.775Z,0.97
2022-09-13T09:23:53.637Z,0.97
2022-09-13T09:26:22.958Z,1.20
2022-09-13T09:29:16.093Z,0.77
2022-09-13T09:32:09.305Z,0.70
2022-09-13T09:35:08.954Z,0.90
2022-09-13T09:37:37.562Z,1.00
2022-09-13T09:40:10.579Z,1.05
2022-09-13T09:42:46.304Z,0.80
2022-09-13T09:45:38.313Z,0.70
2022-09-13T09:48:15.766Z,1.00
2022-09-13T09:50:50.382Z,0.85
2022-09-13T09:53:43.412Z,1.10
2022-09-13T09:56:21.719Z,0.90
2022-09-13T09:58:48.354Z,1.02
2022-09-13T10:01:20.070Z,0.60
2022-09-13T10:03:57.601Z,0.73
2022-09-13T10:06:27.622Z,0.63
2022-09-13T10:09:13.434Z,0.73
2022-09-13T10:11:50.953Z,0.60
2022-09-13T10:14:43.093Z,0.77
2022-09-13T10:17:25.526Z,0.95
2022-09-13T10:20:16.965Z,0.80
2022-09-13T10:22:43.600Z,0.80
2022-09-13T10:25:31.722Z,1.20
2022-09-13T10:28:00.505Z,0.80
2022-09-13T10:30:37.952Z,3.20
2022-09-13T10:33:06.439Z,1.10
2022-09-13T10:35:34.005Z,1.48
2022-09-13T10:38:00.941Z,1.40
2022-09-13T10:40:35.789Z,0.93
2022-09-13T10:43:07.905Z,0.90
2022-09-13T10:45:34.616Z,0.70
2022-09-13T10:48:12.762Z,0.80
2022-09-13T10:50:39.357Z,0.90
2022-09-13T10:53:42.465Z,0.60
2022-09-13T10:56:22.053Z,0.80
2022-09-13T10:58:49.749Z,0.80
2022-09-13T11:01:40.959Z,0.80
2022-09-13T11:04:45.388Z,0.93
2022-09-13T11:07:19.585Z,0.95
2022-09-13T11:09:56.144Z,1.00
2022-09-13T11:12:36.529Z,0.80
2022-09-13T11:15:27.374Z,0.88
2022-09-13T11:18:29.842Z,0.60
2022-09-13T11:21:23.787Z,1.02
2022-09-13T11:24:18.025Z,0.70
2022-09-13T11:27:07.522Z,0.85
2022-09-13T11:29:52.945Z,0.95
2022-09-13T11:32:41.611Z,0.85
2022-09-13T11:35:14.333Z,0.90
2022-09-13T11:37:55.911Z,0.75
2022-09-13T11:40:40.320Z,0.68
2022-09-13T11:43:21.980Z,0.98
2022-09-13T11:46:10.644Z,1.15
2022-09-13T11:48:59.218Z,0.77
2022-09-13T11:51:28.999Z,0.85
2022-09-13T11:54:12.580Z,1.00
2022-09-13T11:56:44.683Z,0.70
2022-09-13T11:59:37.348Z,0.80
2022-09-13T12:02:14.671Z,1.00
2022-09-13T12:05:20.500Z,0.70
2022-09-13T12:07:45.266Z,0.82
2022-09-13T12:10:25.826Z,0.85
2022-09-13T12:12:54.377Z,0.95
2022-09-13T12:15:37.798Z,1.13
2022-09-13T12:18:19.061Z,1.10
2022-09-13T12:21:03.465Z,0.70
2022-09-13T12:23:50.213Z,0.63
2022-09-13T12:26:47.697Z,0.73
2022-09-13T12:29:36.722Z,0.60
2022-09-13T12:32:05.706Z,0.80
2022-09-13T12:34:50.559Z,0.90
2022-09-13T12:37:53.286Z,0.82
2022-09-13T12:40:52.504Z,1.10
2022-09-13T12:43:43.732Z,0.57
2022-09-13T12:46:26.760Z,0.80
2022-09-13T12:49:09.504Z,0.88
2022-09-13T12:51:48.134Z,0.88
2022-09-13T12:54:39.019Z,0.95
2022-09-13T12:57:34.553Z,0.90
2022-09-13T13:00:14.893Z,1.00
2022-09-13T13:02:54.365Z,1.10
2022-09-13T13:05:48.677Z,0.77
2022-09-13T13:08:18.213Z,0.90
2022-09-13T13:10:45.477Z,0.68
2022-09-13T13:13:28.312Z,1.00
2022-09-13T13:15:57.029Z,0.80
2022-09-13T13:18:43.077Z,0.65
2022-09-13T13:21:27.393Z,0.90
2022-09-13T13:24:15.718Z,0.80
2022-09-13T13:26:42.216Z,0.70
2022-09-13T13:29:20.054Z,0.77
2022-09-13T13:32:02.995Z,0.80
2022-09-13T13:34:40.294Z,0.80
2022-09-13T13:37:09.550Z,1.27
2022-09-13T13:39:41.918Z,0.90
2022-09-13T13:42:38.153Z,0.65
2022-09-13T13:45:19.062Z,0.90
2022-09-13T13:48:08.689Z,0.93
2022-09-13T13:50:39.114Z,0.77
2022-09-13T13:53:23.147Z,0.77
2022-09-13T13:56:25.611Z,0.65
2022-09-13T13:58:55.516Z,0.70
2022-09-13T14:01:47.322Z,0.70
2022-09-13T14:04:38.868Z,0.80
2022-09-13T14:07:29.329Z,0.70
2022-09-13T14:10:26.109Z,0.70
2022-09-13T14:13:17.549Z,0.80
2022-09-13T14:16:05.428Z,0.83
2022-09-13T14:18:59.595Z,0.60
2022-09-13T14:21:29.353Z,0.90
2022-09-13T14:24:28.301Z,1.23
2022-09-13T14:26:59.463Z,0.83
2022-09-13T14:29:26.232Z,0.90
2022-09-13T14:31:55.272Z,0.60
2022-09-13T14:34:33.212Z,1.10
2022-09-13T14:37:03.667Z,1.00
2022-09-13T14:39:31.019Z,0.87
2022-09-13T14:42:15.897Z,1.17
2022-09-13T14:44:46.754Z,0.93
2022-09-13T14:47:25.317Z,0.87
2022-09-13T14:50:03.744Z,1.20
2022-09-13T14:52:34.969Z,1.17
2022-09-13T14:55:09.663Z,0.97
2022-09-13T14:57:41.456Z,1.20
2022-09-13T15:00:14.132Z,0.63
2022-09-13T15:02:46.490Z,1.20
2022-09-13T15:05:16.091Z,0.80
2022-09-13T15:07:43.663Z,1.40
2022-09-13T15:10:24.210Z,1.13
2022-09-13T15:13:05.656Z,0.97
2022-09-13T15:15:32.153Z,1.00
2022-09-13T15:18:01.490Z,0.80
2022-09-13T15:20:50.535Z,1.43
2022-09-13T15:23:28.650Z,1.30
2022-09-13T15:26:08.408Z,0.93
2022-09-13T15:28:51.642Z,0.90
2022-09-13T15:31:27.303Z,1.03
2022-09-13T15:34:20.281Z,0.70
2022-09-13T15:36:48.736Z,0.77
2022-09-13T15:39:18.120Z,1.20
2022-09-13T15:42:02.713Z,0.80
2022-09-13T15:44:30.106Z,0.83
2022-09-13T15:47:02.211Z,0.97
2022-09-13T15:49:29.608Z,1.10
2022-09-13T15:51:58.802Z,0.87
2022-09-13T15:54:32.867Z,1.00
2022-09-13T15:56:59.603Z,0.93
2022-09-13T15:59:26.225Z,1.00
2022-09-13T16:01:53.101Z,0.83
2022-09-13T16:04:19.979Z,0.83
2022-09-13T16:06:46.842Z,0.73
2022-09-13T16:09:22.166Z,0.57
2022-09-13T16:11:50.644Z,0.87
2022-09-13T16:14:18.282Z,1.07
2022-09-13T16:16:45.915Z,0.80
2022-09-13T16:19:18.203Z,0.90
2022-09-13T16:21:44.846Z,0.70
2022-09-13T16:24:11.454Z,0.87
2022-09-13T16:26:39.312Z,1.00
2022-09-13T16:29:05.961Z,0.70
2022-09-13T16:31:32.879Z,0.80
2022-09-13T16:33:59.605Z,0.90
2022-09-13T16:36:28.700Z,0.90
2022-09-13T16:38:58.256Z,0.87
2022-09-13T16:41:24.802Z,0.70
2022-09-13T16:43:51.578Z,0.87
2022-09-13T16:46:18.229Z,0.70
2022-09-13T16:48:44.918Z,0.90
2022-09-13T16:51:12.850Z,0.60
2022-09-13T16:53:41.729Z,0.60
2022-09-13T16:56:11.145Z,0.80
2022-09-13T16:58:43.139Z,0.93
2022-09-13T17:01:11.901Z,0.93
2022-09-13T17:03:39.488Z,0.80
2022-09-13T17:06:12.094Z,0.73
2022-09-13T17:08:40.932Z,0.73
2022-09-13T17:11:13.380Z,0.77
2022-09-13T17:13:41.483Z,0.97
2022-09-13T17:16:22.761Z,0.50
2022-09-13T17:18:49.552Z,1.00
2022-09-13T17:21:16.246Z,0.60
2022-09-13T17:23:42.805Z,0.73
2022-09-13T17:26:09.766Z,0.83
2022-09-13T17:28:36.575Z,0.80
2022-09-13T17:31:03.506Z,0.60
2022-09-13T17:33:30.147Z,0.90
2022-09-13T17:36:08.564Z,0.53
2022-09-13T17:38:36.005Z,0.60
2022-09-13T17:41:11.390Z,0.73
2022-09-13T17:43:40.058Z,1.10
2022-09-13T17:46:12.508Z,0.50
2022-09-13T17:48:39.828Z,0.80
2022-09-13T17:51:12.510Z,1.10
2022-09-13T17:53:47.195Z,0.80
2022-09-13T17:56:19.387Z,0.87
2022-09-13T17:58:46.129Z,0.50
2022-09-13T18:01:13.494Z,0.57
2022-09-13T18:03:40.110Z,0.63
2022-09-13T18:06:08.792Z,0.87
2022-09-13T18:08:37.549Z,0.57
2022-09-13T18:11:13.674Z,0.80
2022-09-13T18:13:42.649Z,0.70
2022-09-13T18:16:21.751Z,0.83
2022-09-13T18:18:50.475Z,0.60
2022-09-13T18:21:19.462Z,0.75
2022-09-13T18:23:51.307Z,0.53
2022-09-13T18:26:20.881Z,0.70
2022-09-13T18:28:52.200Z,1.23
2022-09-13T18:31:18.881Z,0.60
2022-09-13T18:33:45.947Z,0.80
2022-09-13T18:36:15.189Z,0.60
2022-09-13T18:38:47.374Z,0.63
2022-09-13T18:41:18.784Z,0.73
2022-09-13T18:43:49.646Z,0.70
2022-09-13T18:46:23.858Z,0.77
2022-09-13T18:48:57.085Z,0.70
2022-09-13T18:51:26.921Z,0.80
2022-09-13T18:53:54.504Z,1.00
2022-09-13T18:56:23.317Z,0.60
2022-09-13T18:58:52.196Z,0.83
2022-09-13T19:01:20.083Z,0.70
2022-09-13T19:03:52.289Z,0.90
2022-09-13T19:06:21.876Z,0.83
2022-09-13T19:08:50.659Z,1.50
2022-09-13T19:11:42.040Z,0.80
2022-09-13T19:14:07.056Z,1.20
2022-09-13T19:16:34.466Z,0.70
2022-09-13T19:19:01.452Z,0.70
2022-09-13T19:21:30.250Z,0.70
2022-09-13T19:24:06.571Z,0.70
2022-09-13T19:26:38.178Z,0.80
2022-09-13T19:29:07.508Z,0.70
2022-09-13T19:31:36.597Z,0.87
2022-09-13T19:34:04.180Z,1.00
2022-09-13T19:36:34.296Z,1.00
2022-09-13T19:39:02.028Z,0.70
2022-09-13T19:41:29.835Z,0.70
2022-09-13T19:44:00.169Z,0.90
2022-09-13T19:46:31.319Z,0.77
2022-09-13T19:48:59.369Z,0.87
2022-09-13T19:51:35.487Z,1.07
2022-09-13T19:54:03.074Z,1.07
2022-09-13T19:56:35.563Z,1.00
2022-09-13T19:59:02.393Z,1.23
2022-09-13T20:01:34.734Z,1.17
2022-09-13T20:04:04.057Z,1.07
2022-09-13T20:06:35.905Z,0.90
2022-09-13T20:09:04.062Z,0.90
2022-09-13T20:11:31.360Z,1.40
2022-09-13T20:13:59.330Z,1.20
2022-09-13T20:16:37.587Z,1.20
2022-09-13T20:19:18.289Z,1.00
2022-09-13T20:21:51.769Z,1.03
2022-09-13T20:24:18.775Z,1.20
2022-09-13T20:26:45.418Z,0.90
2022-09-13T20:29:12.660Z,0.70
2022-09-13T20:31:39.286Z,0.70
2022-09-13T20:34:07.626Z,0.70
2022-09-13T20:36:36.273Z,0.70
2022-09-13T20:39:03.996Z,1.07
2022-09-13T20:41:31.525Z,0.90
2022-09-13T20:44:01.726Z,1.00
2022-09-13T20:46:31.033Z,1.00
2022-09-13T20:48:57.628Z,0.93
2022-09-13T20:51:25.428Z,0.80
2022-09-13T20:53:57.330Z,0.87
2022-09-13T20:56:24.571Z,0.70
2022-09-13T20:58:57.477Z,1.07
2022-09-13T21:01:24.577Z,0.80
2022-09-13T21:03:53.908Z,0.77
2022-09-13T21:06:22.435Z,0.63
2022-09-13T21:08:50.142Z,0.80
2022-09-13T21:11:19.924Z,0.80
2022-09-13T21:13:47.660Z,1.10
2022-09-13T21:16:23.221Z,0.90
2022-09-13T21:18:51.071Z,0.93
2022-09-13T21:21:23.866Z,0.70
2022-09-13T21:23:50.586Z,1.00
2022-09-13T21:26:20.285Z,0.83
2022-09-13T21:28:47.244Z,1.20
2022-09-13T21:31:21.972Z,0.70
2022-09-13T21:33:53.219Z,0.97
2022-09-13T21:36:19.789Z,0.93
2022-09-13T21:38:46.585Z,0.67
2022-09-13T21:41:15.530Z,1.13
2022-09-13T21:43:42.522Z,1.13
2022-09-13T21:46:16.564Z,1.10
2022-09-13T21:48:49.005Z,0.90
2022-09-13T21:51:28.578Z,1.00
2022-09-13T21:53:59.000Z,1.13
2022-09-13T21:56:28.321Z,0.73
2022-09-13T21:58:59.329Z,0.70
2022-09-13T22:01:28.279Z,0.87
2022-09-13T22:03:54.989Z,0.83
2022-09-13T22:06:22.647Z,0.80
2022-09-13T22:08:52.265Z,1.10
2022-09-13T22:11:21.864Z,1.10
2022-09-13T22:13:49.436Z,1.40
2022-09-13T22:16:30.110Z,1.20
2022-09-13T22:19:08.074Z,1.30
2022-09-13T22:21:39.074Z,1.00
2022-09-13T22:24:07.641Z,1.30
2022-09-13T22:26:38.148Z,0.90
2022-09-13T22:29:05.118Z,1.00
2022-09-13T22:31:34.924Z,0.90
2022-09-13T22:34:02.354Z,1.00
2022-09-13T22:36:29.612Z,0.93
2022-09-13T22:38:56.691Z,1.00
2022-09-13T22:41:25.464Z,0.80
2022-09-13T22:43:52.570Z,0.80
2022-09-13T22:46:22.406Z,1.03
2022-09-13T22:48:49.247Z,1.20
2022-09-13T22:51:18.410Z,1.00
2022-09-13T22:53:47.461Z,1.13
2022-09-13T22:56:20.281Z,1.00
2022-09-13T22:58:47.474Z,0.70
2022-09-13T23:01:17.285Z,1.10
2022-09-13T23:03:45.805Z,0.87
2022-09-13T23:06:14.105Z,1.20
2022-09-13T23:08:41.108Z,0.90
2022-09-13T23:11:12.662Z,1.03
2022-09-13T23:13:39.811Z,0.90
2022-09-13T23:16:08.538Z,1.23
2022-09-13T23:18:35.336Z,0.97
2022-09-13T23:21:02.010Z,1.03
2022-09-13T23:23:29.882Z,1.17
2022-09-13T23:26:10.315Z,1.10
2022-09-13T23:28:39.201Z,1.10
2022-09-13T23:31:13.132Z,1.00
2022-09-13T23:33:51.159Z,0.80
2022-09-13T23:36:20.882Z,1.13
2022-09-13T23:38:49.923Z,1.00
2022-09-13T23:41:17.961Z,1.57
2022-09-13T23:43:45.512Z,1.00
2022-09-13T23:46:13.072Z,1.10
2022-09-13T23:48:43.914Z,1.13
2022-09-13T23:51:19.533Z,1.10
2022-09-13T23:53:46.998Z,1.07
2022-09-13T23:56:14.116Z,0.80
2022-09-13T23:58:41.180Z,1.10
